Terminal Aerodrome Forecast
Issued by NWS North Platte, NE

Home | Current Version | Previous Version | Text Only | Print | Product List | Glossary Off
Versions: 1 2 3 4 5 6 7 8 9 10 11 12 13 14 15

000
FTUS43 KLBF 250500
TAFVTN
TAF
KVTN 250520Z 2506/2606 35008KT P6SM SCT120
     FM251200 35008KT P6SM BKN100 PROB30 2515/2519 5SM TSRA OVC040CB
     FM260100 03005KT P6SM BKN100=

USA.gov is the U.S. government's official web portal to all federal, state and local government web resources and services.